createdAt,value
2019-04-27T00:01:13.650Z,6.80
2019-04-27T00:03:44.885Z,5.67
2019-04-27T00:06:18.597Z,6.70
2019-04-27T00:08:49.593Z,8.00
2019-04-27T00:11:23.586Z,5.90
2019-04-27T00:13:53.613Z,6.77
2019-04-27T00:16:27.772Z,7.00
2019-04-27T00:19:04.899Z,7.47
2019-04-27T00:21:54.495Z,6.53
2019-04-27T00:24:24.905Z,8.27
2019-04-27T00:26:54.335Z,8.07
2019-04-27T00:29:25.842Z,7.70
2019-04-27T00:31:55.762Z,6.03
2019-04-27T00:34:25.290Z,7.50
2019-04-27T00:37:11.623Z,11.20
2019-04-27T00:39:45.067Z,8.53
2019-04-27T00:42:14.711Z,8.57
2019-04-27T00:44:44.090Z,7.93
2019-04-27T00:47:13.845Z,9.10
2019-04-27T00:49:44.343Z,9.57
2019-04-27T00:52:14.055Z,8.77
2019-04-27T00:54:44.124Z,8.63
2019-04-27T00:57:15.373Z,6.83
2019-04-27T00:59:53.048Z,6.90
2019-04-27T01:02:36.259Z,7.67
2019-04-27T01:05:08.651Z,8.13
2019-04-27T01:07:38.128Z,9.87
2019-04-27T01:10:08.846Z,12.37
2019-04-27T01:12:38.263Z,10.10
2019-04-27T01:15:08.290Z,10.47
2019-04-27T01:17:39.094Z,10.60
2019-04-27T01:20:09.284Z,9.70
2019-04-27T01:22:39.234Z,13.77
2019-04-27T01:25:08.980Z,12.23
2019-04-27T01:27:45.899Z,10.70
2019-04-27T01:30:33.481Z,9.47
2019-04-27T01:33:02.922Z,9.87
2019-04-27T01:35:32.381Z,11.70
2019-04-27T01:38:02.048Z,11.83
2019-04-27T01:40:31.486Z,10.63
2019-04-27T01:43:00.884Z,12.73
2019-04-27T01:45:31.257Z,12.07
2019-04-27T01:48:00.665Z,13.20
2019-04-27T01:50:30.061Z,14.77
2019-04-27T01:52:59.454Z,16.07
2019-04-27T01:55:29.858Z,13.97
2019-04-27T01:57:59.248Z,12.87
2019-04-27T02:00:46.818Z,14.50
2019-04-27T02:03:19.673Z,12.37
2019-04-27T02:05:51.026Z,12.17
2019-04-27T02:08:20.480Z,11.40
2019-04-27T02:10:49.938Z,13.87
2019-04-27T02:13:20.242Z,13.77
2019-04-27T02:15:49.801Z,13.83
2019-04-27T02:18:19.483Z,14.03
2019-04-27T02:20:49.285Z,14.27
2019-04-27T02:23:19.312Z,17.70
2019-04-27T02:25:49.667Z,10.70
2019-04-27T02:28:24.030Z,8.57
2019-04-27T02:31:04.607Z,9.20
2019-04-27T02:33:41.604Z,10.30
2019-04-27T02:36:14.962Z,12.20
2019-04-27T02:38:42.343Z,14.97
2019-04-27T02:41:11.781Z,17.13
2019-04-27T02:43:45.274Z,15.43
2019-04-27T02:46:14.920Z,15.77
2019-04-27T02:48:55.350Z,13.83
2019-04-27T02:51:32.714Z,12.57
2019-04-27T02:54:02.278Z,13.47
2019-04-27T02:56:31.746Z,13.57
2019-04-27T02:59:01.252Z,11.60
2019-04-27T03:01:32.347Z,13.70
2019-04-27T03:04:01.994Z,12.70
2019-04-27T03:06:31.453Z,13.47
2019-04-27T03:09:00.964Z,11.73
2019-04-27T03:11:32.019Z,16.00
2019-04-27T03:14:29.470Z,15.13
2019-04-27T03:16:54.969Z,13.33
2019-04-27T03:19:40.670Z,12.33
2019-04-27T03:22:14.925Z,12.53
2019-04-27T03:25:00.020Z,12.17
2019-04-27T03:27:34.010Z,12.23
2019-04-27T03:30:04.425Z,11.83
2019-04-27T03:32:33.959Z,12.97
2019-04-27T03:35:04.312Z,14.07
2019-04-27T03:37:33.814Z,15.83
2019-04-27T03:40:04.375Z,13.10
2019-04-27T03:42:37.330Z,14.23
2019-04-27T03:45:10.817Z,13.47
2019-04-27T03:47:40.862Z,14.83
2019-04-27T03:50:13.138Z,9.20
2019-04-27T03:52:56.402Z,11.27
2019-04-27T03:55:30.619Z,10.47
2019-04-27T03:58:01.947Z,13.47
2019-04-27T04:00:33.091Z,11.67
2019-04-27T04:03:02.551Z,12.20
2019-04-27T04:05:32.015Z,12.20
2019-04-27T04:08:01.577Z,12.33
2019-04-27T04:10:32.767Z,13.77
2019-04-27T04:13:03.801Z,11.60
2019-04-27T04:15:36.048Z,11.53
2019-04-27T04:18:05.893Z,9.47
2019-04-27T04:20:35.307Z,11.53
2019-04-27T04:23:04.868Z,12.27
2019-04-27T04:25:34.842Z,13.30
2019-04-27T04:28:04.273Z,12.67
2019-04-27T04:30:33.725Z,13.07
2019-04-27T04:33:03.343Z,10.70
2019-04-27T04:35:33.466Z,10.27
2019-04-27T04:38:03.236Z,13.30
2019-04-27T04:40:39.964Z,11.77
2019-04-27T04:43:22.480Z,13.03
2019-04-27T04:46:13.058Z,10.20
2019-04-27T04:48:41.824Z,10.87
2019-04-27T04:51:11.856Z,10.67
2019-04-27T04:53:41.285Z,9.80
2019-04-27T04:56:10.855Z,9.83
2019-04-27T04:58:41.369Z,10.63
2019-04-27T05:01:11.172Z,8.20
2019-04-27T05:03:40.588Z,11.50
2019-04-27T05:06:10.061Z,11.13
2019-04-27T05:08:39.497Z,10.60
2019-04-27T05:11:09.733Z,10.77
2019-04-27T05:13:39.411Z,10.87
2019-04-27T05:16:09.117Z,10.03
2019-04-27T05:18:39.362Z,10.90
2019-04-27T05:21:16.474Z,11.37
2019-04-27T05:23:46.030Z,10.70
2019-04-27T05:26:15.513Z,10.70
2019-04-27T05:28:44.985Z,10.47
2019-04-27T05:31:14.435Z,9.50
2019-04-27T05:33:43.848Z,7.87
2019-04-27T05:36:13.468Z,10.63
2019-04-27T05:38:46.024Z,7.00
2019-04-27T05:41:14.107Z,6.77
2019-04-27T05:43:45.274Z,9.63
2019-04-27T05:46:43.799Z,7.70
2019-04-27T05:49:20.772Z,7.50
2019-04-27T05:51:50.242Z,6.43
2019-04-27T05:54:20.563Z,5.90
2019-04-27T05:56:49.960Z,5.90
2019-04-27T05:59:19.964Z,5.50
2019-04-27T06:01:49.537Z,2.57
2019-04-27T06:04:19.435Z,4.00
2019-04-27T06:06:49.859Z,4.23
2019-04-27T06:09:19.614Z,10.83
2019-04-27T06:11:50.647Z,6.20
2019-04-27T06:14:20.274Z,3.87
2019-04-27T06:16:51.363Z,5.83
2019-04-27T06:19:20.943Z,3.37
2019-04-27T06:21:50.327Z,5.90
2019-04-27T06:24:19.718Z,3.93
2019-04-27T06:26:49.800Z,4.03
2019-04-27T06:29:19.701Z,2.57
2019-04-27T06:31:49.732Z,2.20
2019-04-27T06:34:19.515Z,5.03
2019-04-27T06:36:48.926Z,6.23
2019-04-27T06:39:20.244Z,3.73
2019-04-27T06:41:49.570Z,3.33
2019-04-27T06:44:19.656Z,3.23
2019-04-27T06:46:49.196Z,3.60
2019-04-27T06:49:19.450Z,3.23
2019-04-27T06:51:49.984Z,4.50
2019-04-27T06:54:21.243Z,5.17
2019-04-27T06:56:50.611Z,4.23
2019-04-27T06:59:20.052Z,3.40
2019-04-27T07:01:49.443Z,3.63
2019-04-27T07:04:19.618Z,4.23
2019-04-27T07:06:54.010Z,5.03
2019-04-27T07:09:20.397Z,5.97
2019-04-27T07:11:49.882Z,5.03
2019-04-27T07:14:19.831Z,4.20
2019-04-27T07:16:50.698Z,4.23
2019-04-27T07:19:20.379Z,4.77
2019-04-27T07:21:49.950Z,4.20
2019-04-27T07:24:19.744Z,6.07
2019-04-27T07:26:49.243Z,4.43
2019-04-27T07:29:19.511Z,6.20
2019-04-27T07:31:49.735Z,4.20
2019-04-27T07:34:19.204Z,5.90
2019-04-27T07:36:49.151Z,3.83
2019-04-27T07:39:19.403Z,3.83
2019-04-27T07:41:49.116Z,5.53
2019-04-27T07:44:39.091Z,6.00
2019-04-27T07:47:16.052Z,3.97
2019-04-27T07:49:46.699Z,8.23
2019-04-27T07:52:16.107Z,6.33
2019-04-27T07:54:45.644Z,5.40
2019-04-27T07:57:15.172Z,7.30
2019-04-27T07:59:44.695Z,4.97
2019-04-27T08:02:14.174Z,5.87
2019-04-27T08:04:43.687Z,6.60
2019-04-27T08:07:13.038Z,8.20
2019-04-27T08:09:42.522Z,10.53
2019-04-27T08:12:11.898Z,5.63
2019-04-27T08:14:41.456Z,6.27
2019-04-27T08:17:10.868Z,6.57
2019-04-27T08:19:40.304Z,6.53
2019-04-27T08:22:09.877Z,7.30
2019-04-27T08:24:39.701Z,6.23
2019-04-27T08:27:10.776Z,7.03
2019-04-27T08:29:41.892Z,7.17
2019-04-27T08:32:12.902Z,9.53
2019-04-27T08:34:42.345Z,5.60
2019-04-27T08:37:11.793Z,7.57
2019-04-27T08:39:41.151Z,7.67
2019-04-27T08:42:10.533Z,7.43
2019-04-27T08:44:39.927Z,6.33
2019-04-27T08:47:09.680Z,7.83
2019-04-27T08:49:39.527Z,9.63
2019-04-27T08:52:09.487Z,7.63
2019-04-27T08:54:39.526Z,9.33
2019-04-27T08:57:09.741Z,7.07
2019-04-27T08:59:39.507Z,6.87
2019-04-27T09:02:09.597Z,7.60
2019-04-27T09:04:39.593Z,7.00
2019-04-27T09:07:26.516Z,8.33
2019-04-27T09:09:59.542Z,6.13
2019-04-27T09:12:42.728Z,7.27
2019-04-27T09:15:16.496Z,9.70
2019-04-27T09:17:50.354Z,9.40
2019-04-27T09:20:24.675Z,7.83
2019-04-27T09:22:54.200Z,9.07
2019-04-27T09:25:23.655Z,8.43
2019-04-27T09:27:53.162Z,8.97
2019-04-27T09:30:23.686Z,7.13
2019-04-27T09:32:53.187Z,10.53
2019-04-27T09:35:22.678Z,11.07
2019-04-27T09:37:52.160Z,11.03
2019-04-27T09:40:21.770Z,11.17
2019-04-27T09:42:51.174Z,12.50
2019-04-27T09:45:20.845Z,8.97
2019-04-27T09:47:50.289Z,14.03
2019-04-27T09:50:20.472Z,10.10
2019-04-27T09:52:49.897Z,10.13
2019-04-27T09:55:19.602Z,10.77
2019-04-27T09:57:49.157Z,7.00
2019-04-27T10:00:19.815Z,8.87
2019-04-27T10:02:49.410Z,9.43
2019-04-27T10:05:19.904Z,6.80
2019-04-27T10:07:49.322Z,10.70
2019-04-27T10:10:20.124Z,10.37
2019-04-27T10:12:49.501Z,12.17
2019-04-27T10:15:19.011Z,9.30
2019-04-27T10:17:48.423Z,8.40
2019-04-27T10:20:17.982Z,11.67
2019-04-27T10:22:47.387Z,10.23
2019-04-27T10:25:27.638Z,12.37
2019-04-27T10:27:59.663Z,8.10
2019-04-27T10:30:30.414Z,11.57
2019-04-27T10:32:59.886Z,6.73
2019-04-27T10:35:29.299Z,11.10
2019-04-27T10:37:58.717Z,11.80
2019-04-27T10:40:28.157Z,10.77
2019-04-27T10:42:57.533Z,9.37
2019-04-27T10:45:27.050Z,11.87
2019-04-27T10:47:56.498Z,13.93
2019-04-27T10:50:26.603Z,9.83
2019-04-27T10:52:56.774Z,4.80
2019-04-27T10:55:27.424Z,11.40
2019-04-27T10:57:56.833Z,10.80
2019-04-27T11:00:29.676Z,8.33
2019-04-27T11:02:59.128Z,9.80
2019-04-27T11:05:31.263Z,12.93
2019-04-27T11:08:00.767Z,11.63
2019-04-27T11:10:30.235Z,10.97
2019-04-27T11:12:59.730Z,12.13
2019-04-27T11:15:29.448Z,9.13
2019-04-27T11:17:58.859Z,9.93
2019-04-27T11:20:28.343Z,8.30
2019-04-27T11:23:07.273Z,12.07
2019-04-27T11:25:28.879Z,7.53
2019-04-27T11:27:58.314Z,7.77
2019-04-27T11:30:27.929Z,7.30
2019-04-27T11:32:59.283Z,8.00
2019-04-27T11:35:30.192Z,13.00
2019-04-27T11:38:00.033Z,8.90
2019-04-27T11:40:29.509Z,8.80
2019-04-27T11:42:58.876Z,8.00
2019-04-27T11:45:28.477Z,6.70
2019-04-27T11:47:58.163Z,5.63
2019-04-27T11:50:27.782Z,5.70
2019-04-27T11:52:57.167Z,3.93
2019-04-27T11:55:27.338Z,4.47
2019-04-27T11:57:56.871Z,7.53
2019-04-27T12:00:28.770Z,8.83
2019-04-27T12:02:58.281Z,3.27
2019-04-27T12:05:27.720Z,8.87
2019-04-27T12:07:57.107Z,9.37
2019-04-27T12:10:26.628Z,6.07
2019-04-27T12:12:59.741Z,5.20
2019-04-27T12:15:29.811Z,6.40
2019-04-27T12:18:02.103Z,8.43
2019-04-27T12:20:31.578Z,7.90
2019-04-27T12:23:00.940Z,8.00
2019-04-27T12:25:30.405Z,6.33
2019-04-27T12:28:04.393Z,4.27
2019-04-27T12:30:47.703Z,8.07
2019-04-27T12:33:17.068Z,5.23
2019-04-27T12:35:48.280Z,6.47
2019-04-27T12:38:17.875Z,7.00
2019-04-27T12:40:47.322Z,4.50
2019-04-27T12:43:16.782Z,6.80
2019-04-27T12:45:46.175Z,7.50
2019-04-27T12:48:15.831Z,6.53
2019-04-27T12:50:46.238Z,5.73
2019-04-27T12:53:48.234Z,6.53
2019-04-27T12:56:14.188Z,7.43
2019-04-27T12:58:45.196Z,4.97
2019-04-27T13:01:25.865Z,4.40
2019-04-27T13:03:58.903Z,5.47
2019-04-27T13:06:26.545Z,5.63
2019-04-27T13:08:55.974Z,5.17
2019-04-27T13:11:26.686Z,2.20
2019-04-27T13:13:57.693Z,5.07
2019-04-27T13:16:30.294Z,5.23
2019-04-27T13:18:58.385Z,8.07
2019-04-27T13:21:27.744Z,4.43
2019-04-27T13:24:03.974Z,5.93
2019-04-27T13:26:28.313Z,9.23
2019-04-27T13:28:58.287Z,3.60
2019-04-27T13:31:27.755Z,5.70
2019-04-27T13:33:57.142Z,7.03
2019-04-27T13:36:26.694Z,8.57
2019-04-27T13:38:56.139Z,9.03
2019-04-27T13:41:30.230Z,9.97
2019-04-27T13:43:57.548Z,9.90
2019-04-27T13:46:28.631Z,6.70
2019-04-27T13:48:59.659Z,7.90
2019-04-27T13:51:36.527Z,8.93
2019-04-27T13:54:18.512Z,14.97
2019-04-27T13:56:37.090Z,11.50
2019-04-27T13:59:07.706Z,6.33
2019-04-27T14:01:37.377Z,9.73
2019-04-27T14:04:07.017Z,8.80
2019-04-27T14:06:36.656Z,9.97
2019-04-27T14:09:09.250Z,6.60
2019-04-27T14:11:39.425Z,7.00
2019-04-27T14:14:09.080Z,9.00
2019-04-27T14:16:39.200Z,6.10
2019-04-27T14:19:10.930Z,11.40
2019-04-27T14:21:39.920Z,11.60
2019-04-27T14:24:09.371Z,5.90
2019-04-27T14:26:38.835Z,8.37
2019-04-27T14:29:08.721Z,7.83
2019-04-27T14:31:39.666Z,4.47
2019-04-27T14:34:09.324Z,6.83
2019-04-27T14:36:40.534Z,6.03
2019-04-27T14:39:11.740Z,6.10
2019-04-27T14:41:41.272Z,5.50
2019-04-27T14:44:10.856Z,8.30
2019-04-27T14:46:40.171Z,4.43
2019-04-27T14:49:09.545Z,5.77
2019-04-27T14:51:40.143Z,8.67
2019-04-27T14:54:11.328Z,7.47
2019-04-27T14:56:40.811Z,7.07
2019-04-27T14:59:10.301Z,7.97
2019-04-27T15:01:40.159Z,4.63
2019-04-27T15:04:09.678Z,3.77
2019-04-27T15:06:39.217Z,3.97
2019-04-27T15:09:09.201Z,6.27
2019-04-27T15:11:38.695Z,6.57
2019-04-27T15:14:09.057Z,6.70
2019-04-27T15:16:42.261Z,4.57
2019-04-27T15:19:20.178Z,5.10
2019-04-27T15:21:56.440Z,6.83
2019-04-27T15:24:20.773Z,6.50
2019-04-27T15:26:50.277Z,5.50
2019-04-27T15:29:25.207Z,6.70
2019-04-27T15:32:00.417Z,5.27
2019-04-27T15:34:29.167Z,5.50
2019-04-27T15:37:00.227Z,5.10
2019-04-27T15:39:43.128Z,5.77
2019-04-27T15:42:14.135Z,4.33
2019-04-27T15:44:44.252Z,4.67
2019-04-27T15:47:13.813Z,4.63
2019-04-27T15:49:49.862Z,4.00
2019-04-27T15:52:14.362Z,4.77
2019-04-27T15:54:43.825Z,2.80
2019-04-27T15:57:13.862Z,5.80
2019-04-27T15:59:43.371Z,2.70
2019-04-27T16:02:15.553Z,3.13
2019-04-27T16:04:44.316Z,1.90
2019-04-27T16:07:18.126Z,2.20
2019-04-27T16:09:46.225Z,2.37
2019-04-27T16:12:15.619Z,1.50
2019-04-27T16:14:44.989Z,3.50
2019-04-27T16:17:14.412Z,2.47
2019-04-27T16:19:48.893Z,4.87
2019-04-27T16:22:14.958Z,3.47
2019-04-27T16:24:44.357Z,1.70
2019-04-27T16:27:13.749Z,5.07
2019-04-27T16:29:43.166Z,4.63
2019-04-27T16:32:12.617Z,5.17
2019-04-27T16:34:42.673Z,4.20
2019-04-27T16:37:13.960Z,6.63
2019-04-27T16:39:45.668Z,4.07
2019-04-27T16:42:16.132Z,5.87
2019-04-27T16:44:49.494Z,9.97
2019-04-27T16:47:21.964Z,4.43
2019-04-27T16:49:48.356Z,3.30
2019-04-27T16:52:19.250Z,3.50
2019-04-27T16:54:57.147Z,6.53
2019-04-27T16:57:21.516Z,5.63
2019-04-27T16:59:57.518Z,6.30
2019-04-27T17:02:25.054Z,3.47
2019-04-27T17:04:55.591Z,6.57
2019-04-27T17:07:24.333Z,8.37
2019-04-27T17:09:53.687Z,6.37
2019-04-27T17:12:23.840Z,4.43
2019-04-27T17:15:13.636Z,7.27
2019-04-27T17:17:51.005Z,3.43
2019-04-27T17:20:21.357Z,9.70
2019-04-27T17:22:53.388Z,7.20
2019-04-27T17:25:23.433Z,7.53
2019-04-27T17:28:03.868Z,4.10
2019-04-27T17:30:30.953Z,7.93
2019-04-27T17:33:11.914Z,4.97
2019-04-27T17:35:42.484Z,7.83
2019-04-27T17:38:12.469Z,3.93
2019-04-27T17:40:41.090Z,4.83
2019-04-27T17:43:10.640Z,7.37
2019-04-27T17:45:39.958Z,6.70
2019-04-27T17:48:10.822Z,5.87
2019-04-27T17:50:40.596Z,8.37
2019-04-27T17:53:10.067Z,5.03
2019-04-27T17:55:39.461Z,7.00
2019-04-27T17:58:09.112Z,7.80
2019-04-27T18:00:42.906Z,7.00
2019-04-27T18:03:12.594Z,7.03
2019-04-27T18:05:43.850Z,5.33
2019-04-27T18:08:13.553Z,7.30
2019-04-27T18:10:43.355Z,12.57
2019-04-27T18:13:12.855Z,6.93
2019-04-27T18:15:45.827Z,15.70
2019-04-27T18:18:14.994Z,8.30
2019-04-27T18:20:44.342Z,7.60
2019-04-27T18:23:16.207Z,6.03
2019-04-27T18:25:49.945Z,10.77
2019-04-27T18:28:21.020Z,6.70
2019-04-27T18:31:00.945Z,5.83
2019-04-27T18:33:32.767Z,7.43
2019-04-27T18:36:05.333Z,6.97
2019-04-27T18:38:35.425Z,6.10
2019-04-27T18:41:07.978Z,4.90
2019-04-27T18:43:35.839Z,6.67
2019-04-27T18:46:05.392Z,7.50
2019-04-27T18:48:37.764Z,7.30
2019-04-27T18:51:11.820Z,9.80
2019-04-27T18:53:41.269Z,10.30
2019-04-27T18:56:10.702Z,10.23
2019-04-27T18:58:40.114Z,7.83
2019-04-27T19:01:09.621Z,8.17
2019-04-27T19:03:39.170Z,4.87
2019-04-27T19:06:08.648Z,10.27
2019-04-27T19:08:38.585Z,6.93
2019-04-27T19:11:09.297Z,8.03
2019-04-27T19:13:40.096Z,7.50
2019-04-27T19:16:09.713Z,5.97
2019-04-27T19:18:39.945Z,7.67
2019-04-27T19:21:09.469Z,11.43
2019-04-27T19:23:40.227Z,10.97
2019-04-27T19:26:11.455Z,6.17
2019-04-27T19:28:42.561Z,8.43
2019-04-27T19:31:13.618Z,14.57
2019-04-27T19:33:42.982Z,9.33
2019-04-27T19:36:12.363Z,9.77
2019-04-27T19:38:41.757Z,13.03
2019-04-27T19:41:11.228Z,15.13
2019-04-27T19:43:41.603Z,9.53
2019-04-27T19:46:10.983Z,11.23
2019-04-27T19:48:40.368Z,15.10
2019-04-27T19:51:09.800Z,12.10
2019-04-27T19:53:39.422Z,12.20
2019-04-27T19:56:08.737Z,12.40
2019-04-27T19:58:45.224Z,17.43
2019-04-27T20:01:18.918Z,18.13
2019-04-27T20:03:49.943Z,19.50
2019-04-27T20:06:19.310Z,18.57
2019-04-27T20:08:50.345Z,21.10
2019-04-27T20:11:19.721Z,20.67
2019-04-27T20:13:50.621Z,17.27
2019-04-27T20:16:20.805Z,19.97
2019-04-27T20:18:51.670Z,20.70
2019-04-27T20:21:21.093Z,19.13
2019-04-27T20:23:50.768Z,18.83
2019-04-27T20:26:20.083Z,19.27
2019-04-27T20:28:51.279Z,23.23
2019-04-27T20:31:20.578Z,22.70
2019-04-27T20:33:49.975Z,21.20
2019-04-27T20:36:21.271Z,14.63
2019-04-27T20:38:50.988Z,20.77
2019-04-27T20:41:21.853Z,20.50
2019-04-27T20:43:51.252Z,24.23
2019-04-27T20:46:22.749Z,22.30
2019-04-27T20:48:52.134Z,22.03
2019-04-27T20:51:23.156Z,24.83
2019-04-27T20:53:54.183Z,19.63
2019-04-27T20:56:23.542Z,27.03
2019-04-27T20:58:52.931Z,24.40
2019-04-27T21:01:22.344Z,20.30
2019-04-27T21:03:56.085Z,19.60
2019-04-27T21:06:29.549Z,26.03
2019-04-27T21:08:58.935Z,20.43
2019-04-27T21:11:30.843Z,27.63
2019-04-27T21:14:01.022Z,18.37
2019-04-27T21:16:31.363Z,22.43
2019-04-27T21:19:02.003Z,35.47
2019-04-27T21:21:31.853Z,24.07
2019-04-27T21:24:01.224Z,24.50
2019-04-27T21:26:32.227Z,28.37
2019-04-27T21:29:01.916Z,23.70
2019-04-27T21:31:31.713Z,26.60
2019-04-27T21:34:01.276Z,26.53
2019-04-27T21:36:31.028Z,25.67
2019-04-27T21:39:01.447Z,23.80
2019-04-27T21:41:31.251Z,23.27
2019-04-27T21:44:01.410Z,20.83
2019-04-27T21:46:31.613Z,25.87
2019-04-27T21:49:01.888Z,26.20
2019-04-27T21:51:33.120Z,27.27
2019-04-27T21:54:18.939Z,34.03
2019-04-27T21:56:48.333Z,25.57
2019-04-27T21:59:17.703Z,27.77
2019-04-27T22:01:47.856Z,26.70
2019-04-27T22:04:17.274Z,24.50
2019-04-27T22:06:46.886Z,25.00
2019-04-27T22:09:16.619Z,24.67
2019-04-27T22:11:46.158Z,29.27
2019-04-27T22:14:15.586Z,36.57
2019-04-27T22:16:45.081Z,24.80
2019-04-27T22:19:14.653Z,27.17
2019-04-27T22:21:44.120Z,31.50
2019-04-27T22:24:15.250Z,28.17
2019-04-27T22:26:44.731Z,26.67
2019-04-27T22:29:14.189Z,27.93
2019-04-27T22:31:43.602Z,29.63
2019-04-27T22:34:13.033Z,24.73
2019-04-27T22:36:42.593Z,24.07
2019-04-27T22:39:31.003Z,25.50
2019-04-27T22:42:02.055Z,25.50
2019-04-27T22:44:41.924Z,19.53
2019-04-27T22:47:12.934Z,27.77
2019-04-27T22:49:42.577Z,21.60
2019-04-27T22:52:11.998Z,21.80
2019-04-27T22:54:42.094Z,21.70
2019-04-27T22:57:13.267Z,25.97
2019-04-27T22:59:56.354Z,23.57
2019-04-27T23:02:33.424Z,18.40
2019-04-27T23:05:03.221Z,22.93
2019-04-27T23:07:32.654Z,20.20
2019-04-27T23:10:02.066Z,19.63
2019-04-27T23:12:31.826Z,26.10
2019-04-27T23:15:01.502Z,17.63
2019-04-27T23:17:44.802Z,22.63
2019-04-27T23:20:14.403Z,17.27
2019-04-27T23:22:43.826Z,14.10
2019-04-27T23:25:13.360Z,17.73
2019-04-27T23:27:42.877Z,22.13
2019-04-27T23:30:13.180Z,19.87
2019-04-27T23:32:47.032Z,17.87
2019-04-27T23:35:16.555Z,22.03
2019-04-27T23:37:45.960Z,24.53
2019-04-27T23:40:16.112Z,15.00
2019-04-27T23:42:45.620Z,23.57
2019-04-27T23:45:18.104Z,22.37
2019-04-27T23:47:47.683Z,25.93
2019-04-27T23:50:17.152Z,21.27
2019-04-27T23:53:01.882Z,19.43
2019-04-27T23:55:35.966Z,24.20
2019-04-27T23:58:05.476Z,17.73
